GLO1414 SBSP-SBRP
Flight info
| Callsign | GLO1414 |
|---|---|
| Flight time | 0h 36m |
| Altitude | 28000 |
| Route | GERTU UZ25 KOMTO |
| Aircraft | B738/M-SDFGIKRWY/LB1 |
Departure
| Time | 2026-05-09 03:54 |
|---|---|
| Airport | Congonhas–Deputado Freitas Nobre Airport (SBSP) |
Arrival
| Time | 2026-05-09 04:31 |
|---|---|
| Airport | Leite Lopes Airport (SBRP) |
| Time | Latitude | Longitude | Altitude | Speed | Heading |
|---|---|---|---|---|---|
| 2026-05-09 03:36 | -23.62479 | -46.65985 | 2599 ft | 0 kts | 237° |
| 2026-05-09 03:47 | -23.62471 | -46.65971 | 2599 ft | 4 kts | 232° |
| 2026-05-09 03:47 | -23.62455 | -46.65956 | 2599 ft | 4 kts | 170° |
| 2026-05-09 03:47 | -23.62433 | -46.65965 | 2599 ft | 4 kts | 152° |
| 2026-05-09 03:48 | -23.62410 | -46.65980 | 2599 ft | 4 kts | 147° |
| 2026-05-09 03:48 | -23.62405 | -46.65984 | 2599 ft | 2 kts | 147° |
| 2026-05-09 03:50 | -23.62409 | -46.65980 | 2599 ft | 5 kts | 145° |
| 2026-05-09 03:50 | -23.62458 | -46.65909 | 2600 ft | 16 kts | 136° |
| 2026-05-09 03:50 | -23.62558 | -46.65834 | 2601 ft | 18 kts | 146° |
| 2026-05-09 03:50 | -23.62660 | -46.65760 | 2601 ft | 17 kts | 146° |
| 2026-05-09 03:51 | -23.62760 | -46.65692 | 2601 ft | 17 kts | 147° |
| 2026-05-09 03:51 | -23.62855 | -46.65624 | 2602 ft | 16 kts | 148° |
| 2026-05-09 03:51 | -23.62947 | -46.65560 | 2602 ft | 15 kts | 147° |
| 2026-05-09 03:51 | -23.63044 | -46.65520 | 2601 ft | 15 kts | 162° |
| 2026-05-09 03:52 | -23.63132 | -46.65469 | 2601 ft | 14 kts | 148° |
| 2026-05-09 03:52 | -23.63214 | -46.65412 | 2601 ft | 14 kts | 147° |
| 2026-05-09 03:52 | -23.63291 | -46.65358 | 2601 ft | 13 kts | 148° |
| 2026-05-09 03:52 | -23.63366 | -46.65306 | 2601 ft | 13 kts | 148° |
| 2026-05-09 03:53 | -23.63418 | -46.65271 | 2601 ft | 5 kts | 148° |
| 2026-05-09 03:53 | -23.63448 | -46.65251 | 2600 ft | 7 kts | 148° |
| 2026-05-09 03:53 | -23.63494 | -46.65174 | 2599 ft | 16 kts | 71° |
| 2026-05-09 03:53 | -23.63337 | -46.65183 | 2606 ft | 51 kts | 329° |
| 2026-05-09 03:54 | -23.62819 | -46.65543 | 2607 ft | 125 kts | 327° |
| 2026-05-09 03:54 | -23.61900 | -46.66178 | 2684 ft | 179 kts | 330° |
| 2026-05-09 03:54 | -23.60831 | -46.66882 | 3693 ft | 170 kts | 329° |
| 2026-05-09 03:54 | -23.59909 | -46.67727 | 4508 ft | 185 kts | 304° |
| 2026-05-09 03:55 | -23.59441 | -46.69134 | 4799 ft | 211 kts | 292° |
| 2026-05-09 03:55 | -23.58988 | -46.70733 | 5111 ft | 227 kts | 293° |
| 2026-05-09 03:55 | -23.58502 | -46.72388 | 5748 ft | 233 kts | 293° |
| 2026-05-09 03:55 | -23.57989 | -46.74096 | 6441 ft | 240 kts | 293° |
| 2026-05-09 03:56 | -23.57464 | -46.75841 | 7061 ft | 246 kts | 290° |
| 2026-05-09 03:56 | -23.57400 | -46.77787 | 7477 ft | 271 kts | 264° |
| 2026-05-09 03:56 | -23.58196 | -46.79706 | 8242 ft | 288 kts | 238° |
| 2026-05-09 03:56 | -23.59785 | -46.81106 | 9115 ft | 304 kts | 211° |
| 2026-05-09 03:57 | -23.61588 | -46.82261 | 9934 ft | 298 kts | 231° |
| 2026-05-09 03:57 | -23.62807 | -46.84058 | 10477 ft | 302 kts | 243° |
| 2026-05-09 03:57 | -23.64363 | -46.85779 | 10620 ft | 341 kts | 216° |
| 2026-05-09 03:57 | -23.66574 | -46.86938 | 10874 ft | 365 kts | 207° |
| 2026-05-09 03:58 | -23.68958 | -46.88010 | 11437 ft | 371 kts | 207° |
| 2026-05-09 03:58 | -23.71327 | -46.89147 | 12137 ft | 372 kts | 208° |
| 2026-05-09 03:58 | -23.73555 | -46.90545 | 12827 ft | 367 kts | 225° |
| 2026-05-09 03:58 | -23.75115 | -46.92645 | 13499 ft | 359 kts | 246° |
| 2026-05-09 03:59 | -23.75941 | -46.95227 | 14093 ft | 355 kts | 263° |
| 2026-05-09 03:59 | -23.76026 | -46.97870 | 14637 ft | 354 kts | 278° |
| 2026-05-09 03:59 | -23.75694 | -47.00541 | 15198 ft | 356 kts | 281° |
| 2026-05-09 03:59 | -23.75322 | -47.03220 | 15786 ft | 358 kts | 281° |
| 2026-05-09 04:00 | -23.74966 | -47.05914 | 16377 ft | 360 kts | 281° |
| 2026-05-09 04:00 | -23.74434 | -47.08582 | 16927 ft | 360 kts | 294° |
| 2026-05-09 04:00 | -23.73165 | -47.10914 | 17508 ft | 359 kts | 311° |
| 2026-05-09 04:00 | -23.71309 | -47.12738 | 18107 ft | 360 kts | 325° |
| 2026-05-09 04:01 | -23.69055 | -47.13947 | 18589 ft | 366 kts | 341° |
| 2026-05-09 04:01 | -23.66558 | -47.14567 | 19070 ft | 370 kts | 346° |
| 2026-05-09 04:01 | -23.64009 | -47.15076 | 19496 ft | 375 kts | 346° |
| 2026-05-09 04:01 | -23.61434 | -47.15601 | 19923 ft | 378 kts | 346° |
| 2026-05-09 04:02 | -23.58840 | -47.16154 | 20370 ft | 382 kts | 345° |
| 2026-05-09 04:02 | -23.56216 | -47.16725 | 20818 ft | 385 kts | 345° |
| 2026-05-09 04:02 | -23.53611 | -47.17297 | 21270 ft | 388 kts | 345° |
| 2026-05-09 04:02 | -23.50959 | -47.17880 | 21716 ft | 391 kts | 345° |
| 2026-05-09 04:03 | -23.48283 | -47.18469 | 22177 ft | 393 kts | 345° |
| 2026-05-09 04:03 | -23.45603 | -47.19056 | 22753 ft | 392 kts | 345° |
| 2026-05-09 04:03 | -23.42926 | -47.19641 | 23407 ft | 390 kts | 344° |
| 2026-05-09 04:03 | -23.40258 | -47.20225 | 23932 ft | 389 kts | 344° |
| 2026-05-09 04:04 | -23.37610 | -47.20804 | 24423 ft | 388 kts | 344° |
| 2026-05-09 04:04 | -23.34962 | -47.21384 | 24957 ft | 387 kts | 344° |
| 2026-05-09 04:04 | -23.32336 | -47.21958 | 25518 ft | 384 kts | 344° |
| 2026-05-09 04:04 | -23.29754 | -47.22522 | 26068 ft | 382 kts | 344° |
| 2026-05-09 04:05 | -23.27152 | -47.23090 | 26586 ft | 381 kts | 344° |
| 2026-05-09 04:05 | -23.24523 | -47.23663 | 27129 ft | 379 kts | 344° |
| 2026-05-09 04:05 | -23.21984 | -47.24216 | 27715 ft | 376 kts | 343° |
| 2026-05-09 04:05 | -23.19381 | -47.24784 | 28003 ft | 380 kts | 343° |
| 2026-05-09 04:06 | -23.14104 | -47.25938 | 28032 ft | 398 kts | 344° |
| 2026-05-09 04:06 | -23.08558 | -47.27148 | 28048 ft | 414 kts | 344° |
| 2026-05-09 04:07 | -23.02812 | -47.28397 | 28051 ft | 428 kts | 344° |
| 2026-05-09 04:07 | -22.96899 | -47.29680 | 28039 ft | 439 kts | 345° |
| 2026-05-09 04:08 | -22.90843 | -47.30992 | 28025 ft | 447 kts | 345° |
| 2026-05-09 04:08 | -22.84740 | -47.32312 | 27998 ft | 447 kts | 345° |
| 2026-05-09 04:09 | -22.81692 | -47.32972 | 27990 ft | 446 kts | 345° |
| 2026-05-09 04:09 | -22.78646 | -47.33632 | 27991 ft | 446 kts | 345° |
| 2026-05-09 04:09 | -22.75603 | -47.34291 | 27983 ft | 445 kts | 345° |
| 2026-05-09 04:09 | -22.72582 | -47.34944 | 27965 ft | 438 kts | 345° |
| 2026-05-09 04:10 | -22.69612 | -47.35586 | 27967 ft | 434 kts | 344° |
| 2026-05-09 04:10 | -22.66772 | -47.36580 | 27971 ft | 427 kts | 330° |
| 2026-05-09 04:10 | -22.64283 | -47.38292 | 27995 ft | 423 kts | 320° |
| 2026-05-09 04:10 | -22.61951 | -47.40257 | 27668 ft | 427 kts | 320° |
| 2026-05-09 04:11 | -22.59668 | -47.42223 | 27193 ft | 422 kts | 320° |
| 2026-05-09 04:11 | -22.57385 | -47.44178 | 26687 ft | 416 kts | 320° |
| 2026-05-09 04:11 | -22.55119 | -47.46098 | 26140 ft | 412 kts | 320° |
| 2026-05-09 04:11 | -22.52861 | -47.47991 | 25600 ft | 408 kts | 321° |
| 2026-05-09 04:12 | -22.50623 | -47.49858 | 25070 ft | 404 kts | 321° |
| 2026-05-09 04:12 | -22.48399 | -47.51708 | 24522 ft | 402 kts | 321° |
| 2026-05-09 04:12 | -22.46191 | -47.53544 | 23984 ft | 399 kts | 321° |
| 2026-05-09 04:12 | -22.43948 | -47.55309 | 23408 ft | 399 kts | 328° |
| 2026-05-09 04:13 | -22.41405 | -47.56490 | 22860 ft | 398 kts | 342° |
| 2026-05-09 04:13 | -22.38691 | -47.57073 | 22350 ft | 396 kts | 347° |
| 2026-05-09 04:13 | -22.35976 | -47.57520 | 21816 ft | 393 kts | 348° |
| 2026-05-09 04:13 | -22.33280 | -47.57934 | 21291 ft | 390 kts | 349° |
| 2026-05-09 04:14 | -22.30605 | -47.58345 | 20776 ft | 387 kts | 349° |
| 2026-05-09 04:14 | -22.27946 | -47.58763 | 20265 ft | 385 kts | 348° |
| 2026-05-09 04:14 | -22.25310 | -47.59188 | 19758 ft | 382 kts | 348° |
| 2026-05-09 04:14 | -22.22686 | -47.59620 | 19227 ft | 381 kts | 348° |
| 2026-05-09 04:15 | -22.20067 | -47.60055 | 18701 ft | 380 kts | 348° |
| 2026-05-09 04:15 | -22.17454 | -47.60493 | 18183 ft | 379 kts | 349° |
| 2026-05-09 04:15 | -22.14851 | -47.60929 | 17624 ft | 378 kts | 349° |
| 2026-05-09 04:15 | -22.12257 | -47.61365 | 17094 ft | 376 kts | 349° |
| 2026-05-09 04:16 | -22.09683 | -47.61796 | 16584 ft | 373 kts | 349° |
| 2026-05-09 04:16 | -22.07123 | -47.62226 | 16081 ft | 371 kts | 349° |
| 2026-05-09 04:16 | -22.04611 | -47.62647 | 15588 ft | 368 kts | 349° |
| 2026-05-09 04:16 | -22.02085 | -47.63070 | 15102 ft | 366 kts | 349° |
| 2026-05-09 04:17 | -21.99573 | -47.63491 | 14599 ft | 364 kts | 349° |
| 2026-05-09 04:17 | -21.97076 | -47.63909 | 14099 ft | 363 kts | 349° |
| 2026-05-09 04:17 | -21.94576 | -47.64328 | 13572 ft | 362 kts | 350° |
| 2026-05-09 04:17 | -21.92097 | -47.64742 | 13044 ft | 359 kts | 350° |
| 2026-05-09 04:18 | -21.89642 | -47.65152 | 12549 ft | 356 kts | 350° |
| 2026-05-09 04:18 | -21.87200 | -47.65561 | 12056 ft | 353 kts | 350° |
| 2026-05-09 04:18 | -21.84782 | -47.65965 | 11575 ft | 350 kts | 350° |
| 2026-05-09 04:18 | -21.82384 | -47.66365 | 11099 ft | 347 kts | 350° |
| 2026-05-09 04:19 | -21.80024 | -47.66759 | 10887 ft | 337 kts | 350° |
| 2026-05-09 04:19 | -21.77745 | -47.67139 | 10723 ft | 326 kts | 350° |
| 2026-05-09 04:19 | -21.75540 | -47.67506 | 10574 ft | 315 kts | 350° |
| 2026-05-09 04:19 | -21.73406 | -47.67862 | 10438 ft | 305 kts | 349° |
| 2026-05-09 04:20 | -21.71368 | -47.68203 | 10312 ft | 296 kts | 349° |
| 2026-05-09 04:20 | -21.69364 | -47.68537 | 10185 ft | 287 kts | 349° |
| 2026-05-09 04:20 | -21.67422 | -47.68861 | 10073 ft | 278 kts | 349° |
| 2026-05-09 04:20 | -21.65537 | -47.69176 | 9966 ft | 269 kts | 350° |
| 2026-05-09 04:21 | -21.63699 | -47.69482 | 9614 ft | 270 kts | 349° |
| 2026-05-09 04:21 | -21.61854 | -47.69790 | 9313 ft | 265 kts | 350° |
| 2026-05-09 04:21 | -21.58833 | -47.70065 | 8813 ft | 262 kts | 359° |
| 2026-05-09 04:22 | -21.56400 | -47.69979 | 8421 ft | 261 kts | 0° |
| 2026-05-09 04:22 | -21.55200 | -47.69928 | 8234 ft | 260 kts | 0° |
| 2026-05-09 04:22 | -21.53395 | -47.69856 | 7941 ft | 259 kts | 0° |
| 2026-05-09 04:22 | -21.51593 | -47.69794 | 7672 ft | 258 kts | 0° |
| 2026-05-09 04:23 | -21.49796 | -47.69738 | 7371 ft | 258 kts | 360° |
| 2026-05-09 04:23 | -21.48004 | -47.69686 | 7093 ft | 257 kts | 0° |
| 2026-05-09 04:23 | -21.46218 | -47.69637 | 6817 ft | 256 kts | 0° |
| 2026-05-09 04:23 | -21.44438 | -47.69591 | 6533 ft | 256 kts | 0° |
| 2026-05-09 04:24 | -21.42660 | -47.69545 | 6253 ft | 255 kts | 0° |
| 2026-05-09 04:24 | -21.40898 | -47.69500 | 6095 ft | 248 kts | 0° |
| 2026-05-09 04:24 | -21.39227 | -47.69457 | 6037 ft | 232 kts | 360° |
| 2026-05-09 04:24 | -21.37695 | -47.69576 | 5866 ft | 211 kts | 346° |
| 2026-05-09 04:25 | -21.36355 | -47.69992 | 5763 ft | 191 kts | 343° |
| 2026-05-09 04:25 | -21.35132 | -47.70406 | 5584 ft | 176 kts | 343° |
| 2026-05-09 04:25 | -21.34024 | -47.70775 | 5484 ft | 158 kts | 343° |
| 2026-05-09 04:25 | -21.32936 | -47.71133 | 5515 ft | 181 kts | 343° |
| 2026-05-09 04:26 | -21.31706 | -47.71534 | 5548 ft | 181 kts | 343° |
| 2026-05-09 04:26 | -21.30553 | -47.71909 | 5426 ft | 164 kts | 344° |
| 2026-05-09 04:26 | -21.29500 | -47.72251 | 5055 ft | 155 kts | 344° |
| 2026-05-09 04:26 | -21.28504 | -47.72573 | 4767 ft | 141 kts | 345° |
| 2026-05-09 04:27 | -21.27584 | -47.72870 | 4518 ft | 136 kts | 345° |
| 2026-05-09 04:27 | -21.26675 | -47.73162 | 4361 ft | 137 kts | 345° |
| 2026-05-09 04:27 | -21.25756 | -47.73457 | 4171 ft | 137 kts | 345° |
| 2026-05-09 04:27 | -21.24851 | -47.73748 | 3985 ft | 135 kts | 345° |
| 2026-05-09 04:28 | -21.23947 | -47.74038 | 3815 ft | 137 kts | 346° |
| 2026-05-09 04:28 | -21.23030 | -47.74331 | 3645 ft | 139 kts | 346° |
| 2026-05-09 04:28 | -21.22104 | -47.74628 | 3448 ft | 138 kts | 346° |
| 2026-05-09 04:28 | -21.21189 | -47.74921 | 3257 ft | 137 kts | 346° |
| 2026-05-09 04:29 | -21.20272 | -47.75214 | 3086 ft | 137 kts | 346° |
| 2026-05-09 04:29 | -21.19344 | -47.75510 | 2907 ft | 141 kts | 346° |
| 2026-05-09 04:29 | -21.18381 | -47.75815 | 2743 ft | 147 kts | 345° |
| 2026-05-09 04:29 | -21.17379 | -47.76140 | 2521 ft | 154 kts | 345° |
| 2026-05-09 04:30 | -21.16338 | -47.76481 | 2307 ft | 158 kts | 344° |
| 2026-05-09 04:30 | -21.15276 | -47.76804 | 2114 ft | 158 kts | 343° |
| 2026-05-09 04:30 | -21.14233 | -47.77149 | 1880 ft | 155 kts | 343° |
| 2026-05-09 04:30 | -21.13310 | -47.77441 | 1825 ft | 101 kts | 343° |
| 2026-05-09 04:31 | -21.13081 | -47.77546 | 1827 ft | 11 kts | 265° |
| 2026-05-09 04:31 | -21.13134 | -47.77597 | 1826 ft | 11 kts | 214° |
| 2026-05-09 04:31 | -21.13219 | -47.77634 | 1826 ft | 16 kts | 183° |
| 2026-05-09 04:31 | -21.13341 | -47.77606 | 1825 ft | 19 kts | 163° |
| 2026-05-09 04:32 | -21.13462 | -47.77566 | 1825 ft | 18 kts | 163° |
| 2026-05-09 04:32 | -21.13574 | -47.77532 | 1825 ft | 16 kts | 165° |
| 2026-05-09 04:32 | -21.13675 | -47.77500 | 1825 ft | 14 kts | 163° |
| 2026-05-09 04:32 | -21.13770 | -47.77469 | 1825 ft | 16 kts | 163° |
| 2026-05-09 04:33 | -21.13861 | -47.77517 | 1825 ft | 18 kts | 257° |
| 2026-05-09 04:33 | -21.13881 | -47.77593 | 1825 ft | 0 kts | 253° |